createdAt,value
2022-12-31T00:00:23.882Z,96.93
2022-12-31T00:02:51.734Z,116.87
2022-12-31T00:05:19.321Z,203.10
2022-12-31T00:07:46.705Z,222.47
2022-12-31T00:10:14.675Z,281.33
2022-12-31T00:12:42.015Z,268.47
2022-12-31T00:15:09.526Z,239.17
2022-12-31T00:17:37.200Z,200.17
2022-12-31T00:20:04.840Z,192.33
2022-12-31T00:22:32.133Z,183.43
2022-12-31T00:24:59.814Z,188.83
2022-12-31T00:27:27.049Z,146.83
2022-12-31T00:29:55.063Z,131.80
2022-12-31T00:32:26.393Z,108.60
2022-12-31T00:34:53.650Z,89.32
2022-12-31T00:37:20.925Z,78.43
2022-12-31T00:39:48.429Z,133.77
2022-12-31T00:42:15.733Z,166.17
2022-12-31T00:44:42.927Z,163.80
2022-12-31T00:47:10.671Z,146.60
2022-12-31T00:49:38.046Z,152.93
2022-12-31T00:52:06.042Z,146.13
2022-12-31T00:54:34.307Z,153.57
2022-12-31T00:57:01.582Z,146.37
2022-12-31T00:59:28.856Z,131.70
2022-12-31T01:01:56.749Z,131.20
2022-12-31T01:04:24.058Z,125.93
2022-12-31T01:06:51.559Z,126.63
2022-12-31T01:09:19.361Z,118.87
2022-12-31T01:11:46.842Z,118.07
2022-12-31T01:14:16.697Z,103.70
2022-12-31T01:16:50.970Z,103.73
2022-12-31T01:19:24.483Z,117.47
2022-12-31T01:21:53.228Z,110.80
2022-12-31T01:24:21.175Z,119.90
2022-12-31T01:26:50.975Z,111.53
2022-12-31T01:29:19.401Z,110.88
2022-12-31T01:31:46.737Z,113.17
2022-12-31T01:34:14.117Z,105.40
2022-12-31T01:36:41.832Z,125.67
2022-12-31T01:39:11.353Z,118.07
2022-12-31T01:41:42.853Z,113.90
2022-12-31T01:44:13.506Z,125.10
2022-12-31T01:46:46.779Z,110.77
2022-12-31T01:49:20.578Z,112.70
2022-12-31T01:52:17.409Z,105.63
2022-12-31T01:54:50.643Z,98.50
2022-12-31T01:57:18.568Z,107.63
2022-12-31T01:59:46.873Z,101.53
2022-12-31T02:02:16.088Z,103.27
2022-12-31T02:04:44.017Z,91.90
2022-12-31T02:07:12.107Z,99.20
2022-12-31T02:09:41.191Z,106.17
2022-12-31T02:14:46.838Z,93.90
2022-12-31T02:17:26.262Z,100.47
2022-12-31T02:20:20.652Z,103.40
2022-12-31T02:23:06.623Z,94.67
2022-12-31T02:26:00.423Z,97.73
2022-12-31T02:28:58.858Z,99.13
2022-12-31T02:31:37.516Z,99.30
2022-12-31T02:34:12.048Z,78.78
2022-12-31T02:36:44.645Z,95.43
2022-12-31T02:39:13.964Z,101.37
2022-12-31T02:41:50.211Z,94.82
2022-12-31T02:44:35.437Z,93.33
2022-12-31T02:47:08.820Z,98.13
2022-12-31T02:49:47.424Z,102.10
2022-12-31T02:52:32.395Z,100.83
2022-12-31T02:55:38.503Z,106.80
2022-12-31T02:58:21.666Z,97.23
2022-12-31T03:01:13.780Z,98.67
2022-12-31T03:03:41.844Z,89.23
2022-12-31T03:06:11.663Z,103.37
2022-12-31T03:09:02.343Z,96.87
2022-12-31T03:11:48.472Z,98.03
2022-12-31T03:14:15.806Z,101.07
2022-12-31T03:16:43.307Z,102.27
2022-12-31T03:19:29.126Z,101.50
2022-12-31T03:22:15.457Z,107.23
2022-12-31T03:25:01.257Z,103.70
2022-12-31T03:27:28.859Z,102.87
2022-12-31T03:29:56.208Z,114.63
2022-12-31T03:32:23.502Z,109.00
2022-12-31T03:34:51.112Z,105.00
2022-12-31T03:37:18.403Z,97.07
2022-12-31T03:39:46.054Z,105.10
2022-12-31T03:42:13.625Z,91.53
2022-12-31T03:44:41.779Z,90.23
2022-12-31T03:47:09.226Z,98.87
2022-12-31T03:49:36.760Z,105.13
2022-12-31T03:52:06.498Z,103.13
2022-12-31T03:54:33.660Z,89.67
2022-12-31T03:59:30.160Z,89.40
2022-12-31T04:01:57.534Z,93.93
2022-12-31T04:04:25.200Z,88.03
2022-12-31T04:06:52.618Z,72.77
2022-12-31T04:09:20.104Z,73.27
2022-12-31T04:11:47.894Z,79.97
2022-12-31T04:14:17.304Z,71.17
2022-12-31T04:19:13.628Z,39.28
2022-12-31T04:21:41.080Z,50.33
2022-12-31T04:24:08.603Z,48.77
2022-12-31T04:26:36.700Z,50.30
2022-12-31T04:29:05.644Z,50.67
2022-12-31T04:31:33.248Z,51.63
2022-12-31T04:34:02.071Z,41.33
2022-12-31T04:36:29.540Z,45.67
2022-12-31T04:38:57.334Z,33.27
2022-12-31T04:41:27.242Z,33.10
2022-12-31T04:46:27.932Z,43.67
2022-12-31T04:48:56.021Z,45.70
2022-12-31T04:51:24.678Z,48.10
2022-12-31T04:53:52.261Z,60.20
2022-12-31T04:56:20.522Z,54.73
2022-12-31T04:58:48.149Z,55.13
2022-12-31T05:01:16.873Z,54.03
2022-12-31T05:03:46.171Z,47.40
2022-12-31T05:06:19.680Z,33.17
2022-12-31T05:08:48.449Z,30.90
2022-12-31T05:11:17.108Z,34.17
2022-12-31T05:13:45.097Z,33.22
2022-12-31T05:16:12.886Z,32.47
2022-12-31T05:18:40.300Z,27.97
2022-12-31T05:21:07.728Z,34.13
2022-12-31T05:23:35.738Z,40.67
2022-12-31T05:26:03.235Z,38.43
2022-12-31T05:28:30.642Z,41.00
2022-12-31T05:30:58.411Z,32.93
2022-12-31T05:33:25.920Z,38.30
2022-12-31T05:35:53.242Z,37.97
2022-12-31T05:38:22.064Z,41.63
2022-12-31T05:40:49.363Z,36.93
2022-12-31T05:43:16.657Z,39.87
2022-12-31T05:45:44.399Z,34.50
2022-12-31T05:48:11.743Z,33.27
2022-12-31T05:50:39.148Z,34.50
2022-12-31T05:55:35.672Z,31.97
2022-12-31T05:58:03.227Z,31.43
2022-12-31T06:00:31.198Z,34.40
2022-12-31T06:02:58.966Z,442.57
2022-12-31T06:05:26.829Z,186.13
2022-12-31T06:07:54.300Z,168.87
2022-12-31T06:10:21.947Z,193.43
2022-12-31T06:12:49.307Z,178.10
2022-12-31T06:15:16.812Z,180.57
2022-12-31T06:17:44.496Z,130.97
2022-12-31T06:20:13.306Z,92.00
2022-12-31T06:22:40.963Z,73.18
2022-12-31T06:25:09.126Z,61.97
2022-12-31T06:27:36.605Z,57.37
2022-12-31T06:30:04.247Z,56.20
2022-12-31T06:32:32.164Z,50.30
2022-12-31T06:34:59.440Z,52.17
2022-12-31T06:37:27.681Z,46.97
2022-12-31T06:39:55.396Z,75.53
2022-12-31T06:42:25.148Z,123.90
2022-12-31T06:44:53.807Z,122.97
2022-12-31T06:47:21.617Z,115.23
2022-12-31T06:49:48.896Z,90.07
2022-12-31T06:52:16.336Z,87.00
2022-12-31T06:54:44.344Z,67.30
2022-12-31T06:57:12.210Z,60.50
2022-12-31T06:59:39.873Z,40.40
2022-12-31T07:02:29.748Z,25.50
2022-12-31T07:05:13.209Z,27.67
2022-12-31T07:07:55.762Z,26.30
2022-12-31T07:10:38.345Z,25.30
2022-12-31T07:13:28.592Z,274.13
2022-12-31T07:16:14.271Z,261.80
2022-12-31T07:18:55.267Z,225.13
2022-12-31T07:21:33.597Z,256.43
2022-12-31T07:24:02.008Z,229.50
2022-12-31T07:26:42.722Z,183.60
2022-12-31T07:29:19.436Z,121.27
2022-12-31T07:32:13.038Z,107.80
2022-12-31T07:34:59.498Z,64.53
2022-12-31T07:37:46.539Z,51.43
2022-12-31T07:40:29.589Z,91.60
2022-12-31T07:43:29.241Z,94.40
2022-12-31T07:46:08.410Z,99.70
2022-12-31T07:48:36.076Z,89.03
2022-12-31T07:51:05.871Z,88.67
2022-12-31T07:53:33.441Z,90.13
2022-12-31T07:56:02.104Z,100.57
2022-12-31T07:59:00.636Z,67.95
2022-12-31T08:01:47.376Z,101.23
2022-12-31T08:04:48.661Z,94.00
2022-12-31T08:07:25.339Z,86.20
2022-12-31T08:09:58.346Z,59.80
2022-12-31T08:12:31.449Z,43.00
2022-12-31T08:14:59.862Z,57.90
2022-12-31T08:17:27.478Z,63.13
2022-12-31T08:19:55.196Z,65.67
2022-12-31T08:22:27.505Z,56.23
2022-12-31T08:25:28.604Z,53.07
2022-12-31T08:28:31.874Z,51.67
2022-12-31T08:31:31.406Z,63.33
2022-12-31T08:34:15.507Z,61.87
2022-12-31T08:36:56.715Z,49.43
2022-12-31T08:39:33.004Z,35.80
2022-12-31T08:42:04.210Z,30.20
2022-12-31T08:44:46.116Z,21.67
2022-12-31T08:47:48.374Z,38.83
2022-12-31T08:50:18.290Z,41.00
2022-12-31T08:52:46.691Z,40.43
2022-12-31T08:55:16.556Z,28.58
2022-12-31T08:57:50.581Z,40.37
2022-12-31T09:00:19.723Z,40.77
2022-12-31T09:06:11.891Z,32.43
2022-12-31T09:09:10.718Z,32.83
2022-12-31T09:12:00.046Z,37.83
2022-12-31T09:14:31.112Z,43.30
2022-12-31T09:17:19.460Z,38.40
2022-12-31T09:19:47.367Z,26.95
2022-12-31T09:22:14.865Z,28.97
2022-12-31T09:24:42.425Z,21.17
2022-12-31T09:27:28.569Z,24.20
2022-12-31T09:30:12.098Z,27.83
2022-12-31T09:33:01.413Z,24.47
2022-12-31T09:35:37.602Z,20.87
2022-12-31T09:38:11.983Z,22.60
2022-12-31T09:40:54.393Z,23.47
2022-12-31T09:44:00.995Z,19.23
2022-12-31T09:46:56.862Z,19.20
2022-12-31T09:49:30.334Z,23.27
2022-12-31T09:52:22.967Z,19.80
2022-12-31T09:54:55.959Z,24.37
2022-12-31T09:57:40.000Z,31.73
2022-12-31T10:00:21.213Z,44.40
2022-12-31T10:03:18.215Z,23.47
2022-12-31T10:06:11.914Z,24.90
2022-12-31T10:09:04.483Z,22.57
2022-12-31T10:11:56.545Z,44.30
2022-12-31T10:14:55.772Z,39.67
2022-12-31T10:20:15.427Z,24.87
2022-12-31T10:22:57.999Z,22.27
2022-12-31T10:26:00.374Z,17.70
2022-12-31T10:28:37.792Z,25.00
2022-12-31T10:31:33.026Z,35.73
2022-12-31T10:34:03.390Z,14.98
2022-12-31T10:36:47.824Z,18.42
2022-12-31T10:39:20.469Z,17.42
2022-12-31T10:41:54.665Z,15.83
2022-12-31T10:44:42.793Z,9.33
2022-12-31T10:47:28.935Z,5.72
2022-12-31T10:50:14.970Z,21.27
2022-12-31T10:53:04.798Z,10.15
2022-12-31T10:55:41.324Z,9.50
2022-12-31T10:58:33.208Z,14.30
2022-12-31T11:01:33.968Z,22.65
2022-12-31T11:04:36.411Z,21.00
2022-12-31T11:07:24.493Z,12.48
2022-12-31T11:09:55.386Z,13.57
2022-12-31T11:12:50.873Z,11.60
2022-12-31T11:15:21.798Z,15.25
2022-12-31T11:18:07.213Z,16.35
2022-12-31T11:20:44.004Z,15.77
2022-12-31T11:23:17.290Z,15.68
2022-12-31T11:26:12.835Z,11.85
2022-12-31T11:28:43.929Z,16.85
2022-12-31T11:31:36.965Z,14.00
2022-12-31T11:34:12.277Z,9.88
2022-12-31T11:37:06.216Z,14.25
2022-12-31T11:39:52.655Z,11.18
2022-12-31T11:42:32.717Z,12.90
2022-12-31T11:45:13.193Z,12.32
2022-12-31T11:48:32.890Z,16.25
2022-12-31T11:51:37.669Z,22.35
2022-12-31T11:54:27.346Z,18.90
2022-12-31T11:57:08.340Z,17.90
2022-12-31T11:59:36.685Z,17.50
2022-12-31T12:02:32.553Z,15.07
2022-12-31T12:05:08.565Z,19.27
2022-12-31T12:07:38.367Z,12.90
2022-12-31T12:10:21.604Z,16.12
2022-12-31T12:12:49.367Z,13.25
2022-12-31T12:15:32.296Z,15.25
2022-12-31T12:18:06.333Z,18.42
2022-12-31T12:20:40.365Z,15.43
2022-12-31T12:23:17.377Z,12.13
2022-12-31T12:25:46.499Z,14.87
2022-12-31T12:28:25.877Z,15.60
2022-12-31T12:31:03.033Z,20.77
2022-12-31T12:33:41.295Z,23.17
2022-12-31T12:36:14.852Z,24.52
2022-12-31T12:38:43.551Z,25.12
2022-12-31T12:41:19.620Z,22.95
2022-12-31T12:43:47.018Z,20.92
2022-12-31T12:46:32.922Z,16.05
2022-12-31T12:49:00.687Z,15.80
2022-12-31T12:51:41.435Z,18.10
2022-12-31T12:54:26.135Z,12.80
2022-12-31T12:57:12.727Z,22.00
2022-12-31T13:00:02.082Z,15.13
2022-12-31T13:02:35.929Z,21.43
2022-12-31T13:05:34.373Z,18.13
2022-12-31T13:08:26.646Z,17.52
2022-12-31T13:11:06.490Z,18.90
2022-12-31T13:14:01.618Z,15.18
2022-12-31T13:16:48.015Z,20.27
2022-12-31T13:19:52.975Z,23.92
2022-12-31T13:22:22.191Z,24.33
2022-12-31T13:25:03.171Z,31.75
2022-12-31T13:27:45.145Z,26.05
2022-12-31T13:30:34.157Z,27.50
2022-12-31T13:35:48.174Z,52.22
2022-12-31T13:38:21.887Z,95.38
2022-12-31T13:41:15.476Z,176.00
2022-12-31T13:44:09.192Z,94.82
2022-12-31T13:47:04.940Z,77.72
2022-12-31T13:49:45.359Z,97.07
2022-12-31T13:52:31.114Z,135.00
2022-12-31T13:55:03.931Z,134.30
2022-12-31T13:57:47.040Z,152.23
2022-12-31T14:00:37.935Z,137.63
2022-12-31T14:03:24.940Z,152.90
2022-12-31T14:05:58.797Z,159.97
2022-12-31T14:08:26.821Z,125.27
2022-12-31T14:10:57.379Z,129.67
2022-12-31T14:13:44.455Z,126.37
2022-12-31T14:16:22.841Z,133.13
2022-12-31T14:19:33.260Z,131.00
2022-12-31T14:22:26.947Z,121.40
2022-12-31T14:24:57.169Z,118.13
2022-12-31T14:27:29.193Z,122.30
2022-12-31T14:29:58.710Z,116.93
2022-12-31T14:32:57.593Z,109.57
2022-12-31T14:35:49.436Z,109.50
2022-12-31T14:38:26.112Z,91.80
2022-12-31T14:41:01.748Z,87.83
2022-12-31T14:43:59.918Z,77.17
2022-12-31T14:46:30.752Z,84.80
2022-12-31T14:49:10.708Z,88.17
2022-12-31T14:51:38.856Z,199.50
2022-12-31T14:54:28.961Z,102.05
2022-12-31T14:56:56.717Z,185.43
2022-12-31T14:59:34.449Z,104.80
2022-12-31T15:02:27.099Z,132.40
2022-12-31T15:05:29.047Z,122.75
2022-12-31T15:08:02.347Z,108.57
2022-12-31T15:10:30.208Z,90.20
2022-12-31T15:13:26.502Z,87.37
2022-12-31T15:16:20.545Z,88.93
2022-12-31T15:18:50.959Z,91.83
2022-12-31T15:21:24.661Z,109.53
2022-12-31T15:23:52.179Z,82.40
2022-12-31T15:26:31.471Z,81.43
2022-12-31T15:29:02.882Z,72.85
2022-12-31T15:31:33.814Z,72.73
2022-12-31T15:34:03.776Z,73.00
2022-12-31T15:36:53.332Z,74.40
2022-12-31T15:39:39.453Z,74.77
2022-12-31T15:42:49.144Z,70.17
2022-12-31T15:45:38.618Z,97.37
2022-12-31T15:48:14.824Z,113.30
2022-12-31T15:50:44.895Z,118.37
2022-12-31T15:53:29.704Z,95.30
2022-12-31T15:55:59.581Z,90.33
2022-12-31T15:58:31.351Z,83.87
2022-12-31T16:01:10.695Z,68.50
2022-12-31T16:03:44.130Z,84.23
2022-12-31T16:06:14.944Z,82.30
2022-12-31T16:08:48.111Z,98.67
2022-12-31T16:11:16.768Z,106.13
2022-12-31T16:13:50.749Z,88.90
2022-12-31T16:16:29.403Z,110.17
2022-12-31T16:18:58.259Z,91.22
2022-12-31T16:21:34.153Z,90.03
2022-12-31T16:24:28.271Z,90.33
2022-12-31T16:26:59.043Z,76.37
2022-12-31T16:29:27.528Z,67.57
2022-12-31T16:31:55.144Z,84.30
2022-12-31T16:34:27.944Z,101.90
2022-12-31T16:37:14.069Z,162.50
2022-12-31T16:40:01.332Z,150.77
2022-12-31T16:42:29.577Z,133.47
2022-12-31T16:44:58.146Z,115.17
2022-12-31T16:47:30.185Z,115.90
2022-12-31T16:50:20.202Z,142.53
2022-12-31T16:52:57.990Z,123.40
2022-12-31T16:55:29.128Z,74.07
2022-12-31T16:58:09.958Z,63.30
2022-12-31T17:00:38.431Z,56.43
2022-12-31T17:03:17.489Z,51.80
2022-12-31T17:06:07.480Z,47.07
2022-12-31T17:09:04.794Z,87.33
2022-12-31T17:12:10.266Z,153.27
2022-12-31T17:14:48.842Z,70.07
2022-12-31T17:17:25.935Z,53.13
2022-12-31T17:19:58.763Z,79.53
2022-12-31T17:22:36.682Z,253.20
2022-12-31T17:25:05.987Z,199.87
2022-12-31T17:27:35.312Z,118.93
2022-12-31T17:30:22.280Z,121.75
2022-12-31T17:32:51.930Z,105.63
2022-12-31T17:35:31.423Z,66.82
2022-12-31T17:38:22.312Z,41.43
2022-12-31T17:40:53.696Z,31.27
2022-12-31T17:43:23.838Z,27.10
2022-12-31T17:45:53.695Z,29.50
2022-12-31T17:48:24.495Z,37.03
2022-12-31T17:50:54.411Z,68.53
2022-12-31T17:53:22.652Z,74.93
2022-12-31T17:55:53.175Z,106.00
2022-12-31T17:58:43.747Z,101.87
2022-12-31T18:01:15.807Z,107.57
2022-12-31T18:03:44.040Z,77.03
2022-12-31T18:06:16.527Z,118.77
2022-12-31T18:08:44.910Z,105.37
2022-12-31T18:11:20.326Z,89.47
2022-12-31T18:13:48.531Z,98.10
2022-12-31T18:16:16.145Z,91.03
2022-12-31T18:18:45.531Z,123.67
2022-12-31T18:21:34.759Z,102.07
2022-12-31T18:26:33.254Z,132.00
2022-12-31T18:29:12.234Z,102.67
2022-12-31T18:31:40.185Z,74.10
2022-12-31T18:34:10.196Z,57.83
2022-12-31T18:36:37.815Z,54.63
2022-12-31T18:39:05.595Z,50.77
2022-12-31T18:41:53.380Z,47.30
2022-12-31T18:46:50.497Z,228.83
2022-12-31T18:49:17.767Z,244.35
2022-12-31T18:51:45.431Z,171.50
2022-12-31T18:54:14.010Z,188.57
2022-12-31T18:56:47.032Z,172.77
2022-12-31T18:59:16.331Z,166.43
2022-12-31T19:01:43.887Z,323.40
2022-12-31T19:04:14.858Z,183.67
2022-12-31T19:06:43.218Z,136.17
2022-12-31T19:09:30.706Z,134.00
2022-12-31T19:11:58.564Z,141.13
2022-12-31T19:14:26.837Z,112.50
2022-12-31T19:16:54.867Z,120.23
2022-12-31T19:19:22.490Z,134.20
2022-12-31T19:21:50.180Z,118.70
2022-12-31T19:24:27.693Z,152.77
2022-12-31T19:26:55.475Z,138.03
2022-12-31T19:29:25.175Z,102.93
2022-12-31T19:31:53.313Z,85.43
2022-12-31T19:34:21.179Z,83.03
2022-12-31T19:36:48.593Z,75.57
2022-12-31T19:39:18.976Z,101.77
2022-12-31T19:41:56.380Z,144.13
2022-12-31T19:44:26.774Z,143.60
2022-12-31T19:46:54.525Z,158.87
2022-12-31T19:49:22.067Z,166.83
2022-12-31T19:51:49.622Z,181.70
2022-12-31T19:54:17.301Z,182.70
2022-12-31T19:56:44.795Z,179.70
2022-12-31T19:59:12.184Z,178.37
2022-12-31T20:01:39.986Z,168.00
2022-12-31T20:04:08.023Z,147.70
2022-12-31T20:06:35.535Z,144.10
2022-12-31T20:09:03.444Z,118.77
2022-12-31T20:11:31.506Z,97.47
2022-12-31T20:13:58.954Z,120.10
2022-12-31T20:16:27.147Z,91.77
2022-12-31T20:18:55.016Z,96.78
2022-12-31T20:21:26.077Z,92.70
2022-12-31T20:23:54.641Z,73.40
2022-12-31T20:26:24.204Z,47.47
2022-12-31T20:28:51.664Z,52.70
2022-12-31T20:31:25.131Z,46.70
2022-12-31T20:33:54.488Z,53.87
2022-12-31T20:36:24.114Z,61.33
2022-12-31T20:38:52.179Z,75.45
2022-12-31T20:41:22.646Z,71.47
2022-12-31T20:43:50.725Z,52.20
2022-12-31T20:46:21.430Z,112.77
2022-12-31T20:48:50.898Z,124.17
2022-12-31T20:51:19.212Z,104.40
2022-12-31T20:54:01.042Z,112.00
2022-12-31T20:56:31.535Z,126.70
2022-12-31T20:58:59.452Z,86.07
2022-12-31T21:01:36.331Z,94.47
2022-12-31T21:04:15.443Z,79.37
2022-12-31T21:06:43.114Z,72.80
2022-12-31T21:09:10.646Z,62.90
2022-12-31T21:11:57.026Z,61.37
2022-12-31T21:14:24.409Z,78.80
2022-12-31T21:16:52.111Z,94.63
2022-12-31T21:19:19.551Z,82.63
2022-12-31T21:21:48.385Z,83.87
2022-12-31T21:24:23.263Z,181.77
2022-12-31T21:26:52.128Z,226.73
2022-12-31T21:29:19.920Z,121.53
2022-12-31T21:31:47.300Z,136.63
2022-12-31T21:34:14.922Z,108.20
2022-12-31T21:36:42.728Z,87.40
2022-12-31T21:39:10.066Z,91.73
2022-12-31T21:41:52.483Z,128.77
2022-12-31T21:44:22.705Z,165.37
2022-12-31T21:47:33.438Z,208.83
2022-12-31T21:49:42.878Z,229.43
2022-12-31T21:52:30.504Z,198.70
2022-12-31T21:55:19.193Z,184.43
2022-12-31T21:58:24.201Z,155.52
2022-12-31T22:00:55.892Z,151.77
2022-12-31T22:03:29.459Z,151.70
2022-12-31T22:06:02.134Z,148.03
2022-12-31T22:08:31.386Z,353.07
2022-12-31T22:10:58.747Z,137.43
2022-12-31T22:13:26.244Z,150.67
2022-12-31T22:16:03.800Z,114.63
2022-12-31T22:18:34.294Z,121.87
2022-12-31T22:21:15.550Z,124.20
2022-12-31T22:23:47.014Z,156.53
2022-12-31T22:26:17.195Z,245.75
2022-12-31T22:28:45.954Z,207.93
2022-12-31T22:31:18.701Z,206.93
2022-12-31T22:33:47.381Z,339.93
2022-12-31T22:36:17.598Z,298.50
2022-12-31T22:38:45.397Z,273.20
2022-12-31T22:41:19.862Z,230.10
2022-12-31T22:44:00.528Z,210.07
2022-12-31T22:46:30.911Z,234.73
2022-12-31T22:48:59.521Z,204.67
2022-12-31T22:51:57.630Z,205.77
2022-12-31T22:54:15.693Z,220.73
2022-12-31T22:56:43.112Z,181.30
2022-12-31T22:59:11.234Z,141.50
2022-12-31T23:01:39.146Z,119.22
2022-12-31T23:04:06.622Z,116.40
2022-12-31T23:06:43.578Z,115.30
2022-12-31T23:09:45.559Z,116.03
2022-12-31T23:12:12.892Z,140.63
2022-12-31T23:14:59.095Z,158.43
2022-12-31T23:17:45.977Z,180.60
2022-12-31T23:20:37.406Z,218.07
2022-12-31T23:23:11.993Z,205.50
2022-12-31T23:25:45.725Z,193.13
2022-12-31T23:28:19.328Z,175.93
2022-12-31T23:30:47.280Z,173.27
2022-12-31T23:33:17.667Z,199.00
2022-12-31T23:35:45.554Z,191.77
2022-12-31T23:38:13.891Z,216.93
2022-12-31T23:40:41.366Z,217.43
2022-12-31T23:43:10.488Z,174.60
2022-12-31T23:45:38.163Z,177.13
2022-12-31T23:48:05.639Z,135.87
2022-12-31T23:50:33.130Z,137.67
2022-12-31T23:53:00.783Z,142.77
2022-12-31T23:55:28.080Z,139.47
2022-12-31T23:57:55.514Z,142.13
